DAOL

Tafaraoui Airport

Algeria
METAR DAOL 181000Z 07008KT CAVOK 31/15 Q1018
Observed Flight Rules
Jun-18 @ 10:00 UTC (an hour ago) Visual Flight Rules
Wind Visibility Clouds
70° at 8 knots 10,000+ meters
  • Clear skies
Temperatures Readings
Current 31°C / 88°F
Dewpoint 15°C / 59°F
Humidity 38%
Altimeter 30.06" Hg
Pressure 1018 hPa
Elevation 112
METAR DAOL 181000Z 07008KT CAVOK 31/15 Q1018
Observed Flight Rules
Jun-18 @ 10:00 UTC
(an hour ago)
VFR
Wind Visibility
70° at 8 knots 10,000+ meters
Clouds
  • Clear skies
Temperature Dewpoint
31°C / 88°F 15°C / 59°F
Humidity Altimeter Pressure
38% 30.06" Hg 1018 hPa